01:44 Langlaufen Seefeld Skating
Ort Seefeld Datum 04.02.2015 17:37:23
Kategorie Langlaufen
Distanz 22,74 Kilometer Steigung 174,0 Meter Gefälle -179,0 Meter
Gesamt Zeit 01:44:29 Aktiv 01:43:56 Pause 00:00:33
Durchs. Tempo 00:04:34 min/km Tempo max. 00:03:05 min/km Tempo min. 00:07:53 min/km
Kalorien 0 Durchs. HF 118 BPM HF max. 133 BPM
Wetter -7 °C MostClouds Min/Max: -7,9 °C/-5,0 °C; Druck: 1001,8 mbar; Rel. Feuchte: 78,7%; Taupunkt: -9,8 °C; Windgeschwindigkeit: 3,6 km/h
Ausrüstung Salomon - Equipe 10 SK
Salomon - RS Carbon
Notiz Seefeld Skating ... 7x Nachtloipe, brutal stumpfer Schnee, eher locker, sehr kalt ... garmin connect
Splits
Distanz (km) Gesamt Zeit Split Zeit Split Tempo Split Tempo Höhenprofil (m)
1,00 00:04:31 00:04:31 00:04:32 13,2 1,23
2,00 00:08:51 00:04:19 00:04:19 13,9 -9,53
3,00 00:13:45 00:04:54 00:04:54 12,2 6,85
4,00 00:18:02 00:04:17 00:04:17 14,0 1,55
5,00 00:22:16 00:04:14 00:04:14 14,2 -8,39
6,00 00:26:55 00:04:38 00:04:38 12,9 7,70
7,00 00:31:17 00:04:22 00:04:23 13,7 -0,87
8,00 00:35:36 00:04:18 00:04:19 13,9 -6,85
9,00 00:40:19 00:04:42 00:04:43 12,7 9,18
10,00 00:44:47 00:04:28 00:04:29 13,4 -4,04
11,00 00:49:11 00:04:23 00:04:23 13,7 -5,13
12,00 00:53:55 00:04:44 00:04:45 12,7 9,97
13,00 00:58:39 00:04:43 00:04:43 12,7 -5,99
14,00 01:02:53 00:04:14 00:04:14 14,2 -3,98
15,00 01:07:37 00:04:44 00:04:44 12,7 10,00
16,00 01:12:09 00:04:31 00:04:32 13,3 -8,02
17,00 01:16:25 00:04:16 00:04:16 14,1 -1,88
18,00 01:21:07 00:04:42 00:04:42 12,8 9,90
19,00 01:25:37 00:04:29 00:04:29 13,4 -9,63
20,00 01:30:17 00:04:40 00:04:40 12,8 0,47
21,00 01:35:05 00:04:48 00:04:48 12,5 9,17
22,00 01:39:27 00:04:22 00:04:22 13,7 -9,98
22,83 01:43:56 00:04:28 00:05:22 11,2 8,74